Terminal Aerodrome Forecast
Issued by NWS

Home | Current Version | Previous Version | Text Only | Print | Product List | Glossary On
Versions: 1 2 3 4 5 6 7 8 9 10 11 12 13 14 15 16
000
FTUS46 KMFR 221300 AAA
TAFRBG
TAF AMD
KRBG 221315Z 2213/2312 01004KT P6SM BKN020
     FM221700 36006KT P6SM SCT040
     FM222200 36011KT P6SM SKC
     FM230400 VRB03KT P6SM SKC=

USA.gov is the U.S. government's official web portal to all federal, state and local government web resources and services.